Time;durP1;ratioP1;P1;durP2;ratioP2;P2;SDS_P1;SDS_P2;PMS_P1;PMS_P2;Temp;Humidity;BMP_temperature;BMP_pressure;BME280_temperature;BME280_humidity;BME280_pressure;Samples;Min_cycle;Max_cycle;Signal;HPM_P1;HPM_P2
2022/08/11 00:02:41;;;;;;;3.90;2.92;;;;;;;18.43;66.28;102381.03;4787096;29;20059;-74
2022/08/11 00:05:11;;;;;;;5.30;3.30;;;;;;;18.33;67.91;102385.72;4788443;29;20426;-73
2022/08/11 00:07:48;;;;;;;5.25;3.22;;;;;;;18.30;67.21;102377.78;4788126;29;20048;-73
2022/08/11 00:10:19;;;;;;;5.45;3.38;;;;;;;18.26;67.38;102380.63;4788878;29;20052;-75
2022/08/11 00:13:06;;;;;;;3.13;2.90;;;;;;;18.25;67.18;102376.44;4788668;29;20066;-74
2022/08/11 00:15:40;;;;;;;3.20;3.00;;;;;;;18.14;67.81;102375.41;4788170;29;20048;-74
2022/08/11 00:18:07;;;;;;;3.45;3.15;;;;;;;18.09;67.66;102379.47;4788314;29;20513;-74
2022/08/11 00:20:38;;;;;;;4.72;2.90;;;;;;;18.02;68.69;102381.72;4786700;29;20054;-74
2022/08/11 00:23:10;;;;;;;7.32;3.35;;;;;;;18.00;68.17;102388.31;4788330;29;20056;-74
2022/08/11 00:25:39;;;;;;;3.90;3.30;;;;;;;17.98;68.52;102382.66;4786887;29;20055;-74
2022/08/11 00:28:30;;;;;;;3.42;3.10;;;;;;;17.97;68.83;102383.09;4787506;29;20044;-74
2022/08/11 00:31:01;;;;;;;3.80;3.50;;;;;;;17.93;68.68;102394.03;4787968;29;20052;-73
2022/08/11 00:33:43;;;;;;;5.15;3.17;;;;;;;17.89;69.05;102395.38;4788004;29;20520;-73
2022/08/11 00:36:15;;;;;;;9.37;3.10;;;;;;;17.80;70.22;102385.34;4787225;29;20499;-74
2022/08/11 00:38:44;;;;;;;5.53;3.20;;;;;;;17.74;70.18;102389.84;4787747;29;20477;-73
2022/08/11 00:41:41;;;;;;;5.38;3.08;;;;;;;17.72;69.75;102383.41;4787657;29;20545;-74
2022/08/11 00:44:39;;;;;;;3.30;3.08;;;;;;;17.64;69.62;102383.66;4787456;29;20059;-74
2022/08/11 00:47:35;;;;;;;3.67;3.28;;;;;;;17.58;70.89;102385.47;4787933;29;20134;-73
2022/08/11 00:50:21;;;;;;;6.00;3.30;;;;;;;17.56;69.82;102382.50;4767332;30;20068;-74
2022/08/11 00:53:16;;;;;;;3.20;2.83;;;;;;;17.51;70.08;102385.03;4767916;30;20056;-74
2022/08/11 00:56:30;;;;;;;3.50;3.30;;;;;;;17.50;69.86;102389.66;4767569;30;20280;-74
2022/08/11 00:59:25;;;;;;;4.47;3.08;;;;;;;17.45;71.11;102390.25;4766927;30;20064;-74
2022/08/11 01:02:04;;;;;;;2.95;2.75;;;;;;;17.38;71.24;102387.09;4767326;30;20060;-74
2022/08/11 01:04:58;;;;;;;3.33;3.13;;;;;;;17.33;70.47;102389.19;4767281;30;20106;-74
2022/08/11 01:08:06;;;;;;;4.50;3.25;;;;;;;17.35;70.87;102388.75;4767230;30;20590;-74
2022/08/11 01:11:01;;;;;;;7.90;3.28;;;;;;;17.31;71.21;102393.50;4781593;29;20055;-74
2022/08/11 01:13:36;;;;;;;4.28;3.10;;;;;;;17.25;71.54;102397.97;4766753;30;20064;-74
2022/08/11 01:16:27;;;;;;;3.47;3.17;;;;;;;17.25;71.72;102393.34;4767291;30;20236;-74
2022/08/11 01:19:18;;;;;;;3.17;2.97;;;;;;;17.18;71.28;102387.53;4766166;30;20129;-74
2022/08/11 01:21:56;;;;;;;5.97;3.13;;;;;;;17.13;71.84;102385.41;4782212;29;20514;-74
2022/08/11 01:25:07;;;;;;;6.90;3.20;;;;;;;17.10;71.40;102384.38;4770187;29;20121;-74
2022/08/11 01:28:07;;;;;;;3.33;2.97;;;;;;;17.04;72.19;102380.75;4786607;29;20066;-74
2022/08/11 01:30:48;;;;;;;6.70;2.97;;;;;;;16.94;73.08;102379.97;4787503;29;20048;-74
2022/08/11 01:33:52;;;;;;;3.40;3.10;;;;;;;16.93;72.61;102375.78;4787697;29;20351;-74
2022/08/11 01:36:37;;;;;;;3.17;2.97;;;;;;;16.90;73.28;102379.38;4787098;29;20054;-74
2022/08/11 01:39:37;;;;;;;3.92;3.63;;;;;;;16.91;72.72;102377.44;4785577;29;20059;-74
2022/08/11 01:45:10;;;;;;;3.10;2.90;;;;;;;16.84;72.77;102391.16;4786913;29;20055;-74
2022/08/11 01:47:51;;;;;;;3.42;3.13;;;;;;;16.78;73.86;102385.63;4784792;29;20055;-74
2022/08/11 01:50:30;;;;;;;3.83;3.13;;;;;;;16.74;74.18;102376.19;4787403;29;20139;-74
2022/08/11 01:53:22;;;;;;;3.22;2.92;;;;;;;16.71;73.48;102379.75;4787178;29;20965;-74
2022/08/11 01:56:04;;;;;;;4.35;2.90;;;;;;;16.67;73.44;102380.63;4787071;29;20113;-74
2022/08/11 01:58:52;;;;;;;6.43;3.53;;;;;;;16.64;73.75;102376.16;4786959;29;20121;-74
2022/08/11 02:01:50;;;;;;;3.53;3.22;;;;;;;16.60;75.25;102375.50;4785720;29;20059;-74
2022/08/11 02:04:41;;;;;;;3.47;3.28;;;;;;;16.57;74.69;102389.06;4786964;29;20056;-74
2022/08/11 02:07:18;;;;;;;3.67;3.30;;;;;;;16.55;74.80;102378.75;4786755;29;20494;-74
2022/08/11 02:09:56;;;;;;;5.78;3.25;;;;;;;16.53;75.20;102381.13;4786431;29;20055;-74
2022/08/11 02:12:43;;;;;;;4.28;3.78;;;;;;;16.49;74.73;102369.78;4785386;29;20091;-74
2022/08/11 02:15:27;;;;;;;3.35;3.15;;;;;;;16.48;75.25;102375.59;4785333;29;20243;-74
2022/08/11 02:23:38;;;;;;;3.67;3.38;;;;;;;16.43;74.81;102366.16;4786720;29;20101;-74
2022/08/11 02:24:16;;;;;;;5.25;3.70;;;;;;;16.38;76.06;102366.00;4785217;29;20052;-74
2022/08/11 02:27:19;;;;;;;4.70;3.60;;;;;;;16.32;75.82;102374.63;4786436;29;20051;-74
2022/08/11 02:29:50;;;;;;;3.95;3.60;;;;;;;16.29;76.21;102367.44;4779030;29;20056;-74
2022/08/11 02:35:35;;;;;;;5.57;3.50;;;;;;;16.28;76.19;102365.94;4786128;29;20051;-74
2022/08/11 02:38:32;;;;;;;5.10;3.90;;;;;;;16.24;76.83;102367.25;4784288;29;20301;-75
2022/08/11 02:44:46;;;;;;;4.18;3.63;;;;;;;16.19;76.65;102379.31;4786427;29;20551;-75
2022/08/11 02:49:52;;;;;;;5.18;3.75;;;;;;;16.18;76.78;102377.81;4784635;29;20060;-75
2022/08/11 02:50:34;;;;;;;6.70;3.60;;;;;;;16.12;77.48;102374.19;4773061;29;20063;-75
2022/08/11 02:53:21;;;;;;;4.50;4.10;;;;;;;16.04;77.43;102370.25;4785949;29;20060;-75
2022/08/11 02:56:07;;;;;;;7.68;3.95;;;;;;;16.01;77.37;102369.19;4786273;29;20044;-75
2022/08/11 02:59:48;;;;;;;4.03;3.70;;;;;;;15.99;77.96;102370.84;4786054;29;20129;-75
2022/08/11 03:01:51;;;;;;;3.97;3.67;;;;;;;15.96;78.20;102360.97;4785670;29;20048;-75
2022/08/11 03:04:38;;;;;;;5.88;4.07;;;;;;;15.94;78.28;102357.97;4784896;29;20121;-75
2022/08/11 03:07:19;;;;;;;4.88;3.95;;;;;;;15.90;78.74;102360.03;4785617;29;20533;-75
2022/08/11 03:10:20;;;;;;;9.20;4.38;;;;;;;15.89;78.63;102364.66;4784764;29;20056;-75
2022/08/11 03:19:20;;;;;;;3.80;3.50;;;;;;;15.81;78.84;102362.66;4785712;29;20543;-75
2022/08/11 03:21:57;;;;;;;3.90;3.60;;;;;;;15.77;78.53;102352.03;4784225;29;20052;-74
2022/08/11 03:24:47;;;;;;;;;;;;;;;15.76;77.60;102352.47;4786317;29;20118;-75
2022/08/11 03:27:31;;;;;;;3.63;3.42;;;;;;;15.70;78.47;102354.19;4785925;29;20388;-74
2022/08/11 03:30:16;;;;;;;3.58;3.28;;;;;;;15.68;79.11;102355.38;4784657;29;20077;-74
2022/08/11 03:36:40;;;;;;;4.35;3.95;;;;;;;15.58;79.81;102351.16;4783548;29;20060;-74
2022/08/11 03:39:33;;;;;;;4.18;3.72;;;;;;;15.56;80.23;102356.19;4767759;30;20088;-74
2022/08/11 03:42:18;;;;;;;4.00;3.80;;;;;;;15.50;80.28;102357.16;4767854;30;20064;-74
2022/08/11 03:45:15;;;;;;;4.18;3.88;;;;;;;15.49;80.36;102355.66;4766604;30;20056;-74
2022/08/11 03:48:13;;;;;;;3.88;3.50;;;;;;;15.47;80.34;102361.47;4767766;30;20161;-74
2022/08/11 03:51:16;;;;;;;3.80;3.50;;;;;;;15.42;80.22;102359.31;4767371;30;20979;-74
2022/08/11 03:54:10;;;;;;;4.20;3.90;;;;;;;15.38;80.48;102361.38;4767506;30;20110;-74
2022/08/11 03:57:14;;;;;;;6.97;3.60;;;;;;;15.37;79.66;102364.47;4767660;30;20541;-74
2022/08/11 04:00:02;;;;;;;3.63;3.35;;;;;;;15.33;79.64;102359.22;4751362;30;20060;-74
2022/08/11 04:03:06;;;;;;;3.78;3.47;;;;;;;15.28;80.41;102357.09;4766525;30;20538;-74
2022/08/11 04:05:48;;;;;;;4.35;3.58;;;;;;;15.26;81.03;102359.47;4762274;30;20068;-74
2022/08/11 04:08:42;;;;;;;3.80;3.58;;;;;;;15.24;81.19;102353.78;4767631;30;20063;-74
2022/08/11 04:11:51;;;;;;;3.88;3.67;;;;;;;15.23;80.88;102350.34;4767834;30;20048;-74
2022/08/11 04:17:49;;;;;;;5.05;3.65;;;;;;;15.13;81.92;102356.06;4769936;30;20063;-74
2022/08/11 04:20:36;;;;;;;4.90;4.18;;;;;;;15.11;81.47;102347.69;4783235;29;20064;-74
2022/08/11 04:23:19;;;;;;;4.20;3.90;;;;;;;15.09;81.49;102347.38;4753936;30;20048;-74
2022/08/11 04:26:32;;;;;;;5.75;3.70;;;;;;;15.06;81.13;102349.00;4770169;30;21072;-74
2022/08/11 04:29:24;;;;;;;4.40;4.10;;;;;;;15.05;81.04;102344.06;4770188;30;20090;-74
2022/08/11 04:32:23;;;;;;;7.10;4.15;;;;;;;15.00;81.72;102339.97;4755660;30;20056;-74
2022/08/11 04:35:43;;;;;;;3.88;3.58;;;;;;;15.00;81.03;102338.06;4786649;29;20055;-75
2022/08/11 04:38:44;;;;;;;5.95;3.70;;;;;;;15.00;81.33;102337.31;4767802;30;20068;-74
2022/08/11 04:43:19;;;;;;;4.45;4.05;;;;;;;14.98;81.93;102348.47;4767586;30;20403;-74
2022/08/11 04:44:38;;;;;;;4.00;3.70;;;;;;;14.97;82.38;102346.97;4767089;30;20064;-74
2022/08/11 05:01:39;;;;;;;4.43;3.75;;;;;;;14.98;82.58;102345.78;4767423;30;20068;-74
2022/08/11 05:03:10;;;;;;;4.13;3.88;;;;;;;14.99;81.18;102341.91;4767941;30;20106;-74
2022/08/11 05:05:49;;;;;;;4.47;3.75;;;;;;;15.02;81.63;102340.31;4766364;30;20531;-75
2022/08/11 05:09:01;;;;;;;4.90;3.75;;;;;;;15.08;80.94;102337.84;4767410;30;20638;-74
2022/08/11 05:12:01;;;;;;;5.90;3.42;;;;;;;15.15;81.38;102333.00;4755595;30;20070;-74
2022/08/11 05:35:04;;;;;;;5.25;4.65;;;;;;;26.74;44.93;102360.41;4785514;29;20060;-73
2022/08/11 05:37:33;;;;;;;5.93;4.30;;;;;;;26.96;43.61;102364.13;4786669;29;20055;-74
2022/08/11 05:57:22;;;;;;;5.07;4.78;;;;;;;29.18;39.08;102375.28;4787131;29;20055;-73
2022/08/11 06:00:10;;;;;;;6.28;5.25;;;;;;;29.15;38.68;102385.31;4787055;29;20834;-73
2022/08/11 06:02:42;;;;;;;5.22;4.85;;;;;;;29.21;39.26;102374.19;4786197;29;20426;-72
2022/08/11 06:05:09;;;;;;;;;;;;;;;29.47;40.25;102368.66;4794953;29;20055;-73
2022/08/11 06:07:36;;;;;;;5.80;5.13;;;;;;;29.08;39.38;102366.03;4785490;29;19930;-73
2022/08/11 06:10:27;;;;;;;5.97;4.95;;;;;;;28.73;40.42;102375.47;4786691;29;20055;-72
2022/08/11 06:12:56;;;;;;;14.95;5.43;;;;;;;28.61;40.30;102380.41;4769933;29;20113;-72
2022/08/11 06:15:24;;;;;;;10.43;5.70;;;;;;;28.27;41.58;102379.59;4785183;29;20047;-72
2022/08/11 06:17:52;;;;;;;10.82;5.43;;;;;;;27.73;42.63;102384.19;4785750;29;20044;-72
2022/08/11 06:20:20;;;;;;;9.88;5.40;;;;;;;27.65;42.77;102383.31;4786653;29;20052;-73
2022/08/11 06:22:56;;;;;;;6.85;4.90;;;;;;;27.10;43.96;102380.09;4786069;29;20109;-72
2022/08/11 06:25:29;;;;;;;8.27;5.40;;;;;;;26.83;44.24;102376.41;4784848;29;20132;-73
2022/08/11 06:27:56;;;;;;;7.15;5.63;;;;;;;26.42;45.34;102371.16;4786397;29;20055;-72
2022/08/11 06:30:38;;;;;;;7.28;5.05;;;;;;;26.09;45.94;102374.19;4785789;29;20055;-74
2022/08/11 06:33:18;;;;;;;6.35;5.20;;;;;;;25.80;45.73;102367.50;4785924;29;20113;-76
2022/08/11 06:36:15;;;;;;;8.60;5.63;;;;;;;25.60;45.57;102371.31;4786247;29;20048;-74
2022/08/11 06:39:00;;;;;;;8.38;5.22;;;;;;;25.40;47.22;102367.00;4786240;29;20158;-75
2022/08/11 06:41:39;;;;;;;11.18;5.53;;;;;;;25.23;46.96;102363.59;4786329;29;20055;-76
2022/08/11 06:44:12;;;;;;;10.02;5.43;;;;;;;25.07;47.68;102367.91;4786092;29;20371;-75
2022/08/11 06:46:46;;;;;;;7.82;5.25;;;;;;;24.93;48.60;102361.50;4785730;29;20437;-75
2022/08/11 06:52:05;;;;;;;10.20;5.00;;;;;;;24.89;49.18;102369.19;4786100;29;20121;-75
2022/08/11 06:54:40;;;;;;;5.80;5.10;;;;;;;24.88;48.87;102356.81;4784839;29;20510;-76
2022/08/11 07:03:02;;;;;;;4.95;4.60;;;;;;;24.99;48.35;102361.50;4786419;29;20129;-73
2022/08/11 07:05:46;;;;;;;5.80;5.18;;;;;;;25.02;47.79;102359.75;4785789;29;20052;-72
2022/08/11 07:17:48;;;;;;;6.32;4.65;;;;;;;25.19;47.39;102365.88;4785296;29;20468;-73
2022/08/11 07:28:54;;;;;;;11.40;4.55;;;;;;;25.61;47.32;102370.06;4785212;29;20125;-74
2022/08/11 07:31:30;;;;;;;;;;;;;;;25.76;47.65;102377.94;4786141;29;20060;-73
2022/08/11 07:34:17;;;;;;;15.30;4.68;;;;;;;25.92;46.99;102372.34;4785773;29;19929;-74
2022/08/11 07:36:49;;;;;;;6.18;3.88;;;;;;;26.00;45.21;102377.22;4785360;29;20518;-74
2022/08/11 07:39:20;;;;;;;5.20;4.60;;;;;;;26.03;44.91;102368.78;4784754;29;20056;-74
2022/08/11 07:41:49;;;;;;;7.22;4.28;;;;;;;26.06;44.68;102369.75;4785937;29;20056;-74
2022/08/11 07:44:17;;;;;;;10.25;4.22;;;;;;;26.05;44.87;102369.00;4785051;29;20047;-74
2022/08/11 07:52:28;;;;;;;6.43;4.40;;;;;;;26.28;44.88;102363.34;4788522;29;20052;-74
2022/08/11 07:54:58;;;;;;;18.65;4.40;;;;;;;26.51;43.65;102375.53;4788683;29;20055;-74
2022/08/11 08:20:41;;;;;;;5.82;4.40;;;;;;;27.78;41.11;102368.94;4787825;29;20475;-75
2022/08/11 08:23:08;;;;;;;9.55;4.90;;;;;;;27.82;39.85;102358.44;4788006;29;21065;-74
2022/08/11 08:25:38;;;;;;;4.70;4.28;;;;;;;28.08;40.13;102365.94;4787835;29;20144;-75
2022/08/11 08:28:12;;;;;;;10.13;4.47;;;;;;;28.25;40.56;102362.94;4787388;29;20051;-75
2022/08/11 08:30:46;;;;;;;6.35;4.20;;;;;;;28.36;39.18;102360.75;4786599;29;20079;-76
2022/08/11 08:33:15;;;;;;;4.22;3.90;;;;;;;28.57;38.72;102362.81;4787344;29;20604;-77
2022/08/11 08:35:44;;;;;;;5.22;4.30;;;;;;;28.66;39.45;102367.88;4787012;29;20050;-78
2022/08/11 08:38:22;;;;;;;6.03;3.90;;;;;;;28.91;39.46;102363.63;4786050;29;20086;-78
2022/08/11 08:40:51;;;;;;;7.70;4.30;;;;;;;28.94;38.99;102353.63;4786191;29;20491;-79
2022/08/11 08:43:22;;;;;;;7.03;3.95;;;;;;;29.06;38.66;102352.13;4786599;29;20154;-79
2022/08/11 08:45:54;;;;;;;4.38;3.83;;;;;;;29.10;37.59;102355.28;4787752;29;20138;-78
2022/08/11 08:48:24;;;;;;;13.05;3.63;;;;;;;29.20;36.71;102357.00;4771189;29;20055;-81
2022/08/11 08:54:22;;;;;;;8.20;3.60;;;;;;;29.42;37.65;102355.81;4788143;29;20052;-78
2022/08/11 08:56:53;;;;;;;3.83;3.40;;;;;;;29.46;36.84;102356.22;4785431;29;20060;-81
2022/08/11 08:59:22;;;;;;;6.63;3.70;;;;;;;29.64;36.43;102351.78;4785703;29;20059;-79
2022/08/11 09:01:54;;;;;;;4.80;3.38;;;;;;;29.74;37.13;102350.03;4785608;29;20051;-79
2022/08/11 09:04:21;;;;;;;8.85;4.28;;;;;;;29.66;35.78;102359.47;4787364;29;20212;-80
2022/08/11 09:06:49;;;;;;;8.70;3.15;;;;;;;29.78;35.15;102350.44;4786119;29;20121;-81
2022/08/11 09:09:19;;;;;;;11.25;3.20;;;;;;;29.96;34.42;102351.50;4785804;29;20051;-79
2022/08/11 09:11:49;;;;;;;7.20;3.45;;;;;;;29.95;34.54;102349.28;4785460;29;20608;-81
2022/08/11 09:14:17;;;;;;;4.63;3.17;;;;;;;30.07;34.77;102350.47;4771237;29;20059;-77
2022/08/11 09:16:45;;;;;;;12.00;3.60;;;;;;;30.02;34.44;102343.13;4786974;29;20048;-78
2022/08/11 09:19:17;;;;;;;6.45;3.35;;;;;;;30.24;35.03;102350.03;4785734;29;20051;-78
2022/08/11 09:27:21;;;;;;;10.00;3.20;;;;;;;30.62;31.82;102342.75;4785678;29;20528;-78
2022/08/11 09:29:49;;;;;;;3.78;2.72;;;;;;;30.80;31.77;102343.72;4771103;29;20052;-79
2022/08/11 09:32:23;;;;;;;6.22;3.17;;;;;;;31.01;32.57;102338.09;4785783;29;20121;-77
2022/08/11 09:34:51;;;;;;;4.25;3.00;;;;;;;31.05;30.51;102332.97;4787057;29;20052;-78
2022/08/11 09:40:29;;;;;;;12.60;2.90;;;;;;;31.19;30.54;102328.09;4784826;29;20294;-79
2022/08/11 09:45:50;;;;;;;3.30;3.10;;;;;;;31.44;30.99;102324.25;4785297;29;20117;-79
2022/08/11 09:48:18;;;;;;;8.10;3.05;;;;;;;31.58;30.43;102321.31;4770813;29;20060;-79
2022/08/11 09:50:49;;;;;;;6.30;2.65;;;;;;;31.73;29.54;102327.56;4785505;29;20062;-79
2022/08/11 09:53:17;;;;;;;9.50;2.80;;;;;;;31.86;28.91;102320.41;4785018;29;20052;-78
2022/08/11 09:58:54;;;;;;;6.35;3.22;;;;;;;31.96;28.20;102316.53;4770150;29;20055;-78
2022/08/11 10:01:27;;;;;;;7.82;2.78;;;;;;;32.12;27.08;102320.69;4785197;29;20056;-79
2022/08/11 10:04:14;;;;;;;4.72;2.45;;;;;;;32.27;27.52;102317.19;4769915;29;20125;-75
2022/08/11 10:09:51;;;;;;;4.97;2.95;;;;;;;32.33;27.96;102314.25;4784233;29;20147;-75
2022/08/11 10:12:33;;;;;;;6.50;2.85;;;;;;;32.42;26.95;102319.16;4786803;29;20060;-76
2022/08/11 10:20:49;;;;;;;6.20;2.85;;;;;;;32.51;25.52;102315.06;4786357;29;20051;-75
2022/08/11 10:34:58;;;;;;;7.13;2.50;;;;;;;33.09;23.23;102297.31;4784553;29;20055;-75
2022/08/11 10:37:33;;;;;;;2.65;2.25;;;;;;;32.95;22.85;102294.09;4785251;29;20434;-81
2022/08/11 10:40:21;;;;;;;7.28;2.70;;;;;;;33.04;23.64;102290.00;4786305;29;20464;-79
2022/08/11 10:43:12;;;;;;;9.00;2.70;;;;;;;32.98;23.78;102286.72;4786316;29;20047;-80
2022/08/11 10:48:35;;;;;;;5.80;2.85;;;;;;;33.10;23.59;102276.72;4786109;29;20056;-78
2022/08/11 10:51:13;;;;;;;10.30;2.70;;;;;;;33.17;23.03;102280.72;4784692;29;20506;-77
2022/08/11 10:59:23;;;;;;;2.70;2.50;;;;;;;33.22;22.92;102265.94;4784908;29;19937;-75
2022/08/11 11:01:52;;;;;;;5.13;2.53;;;;;;;33.30;23.48;102263.88;4785735;29;20048;-76
2022/08/11 11:05:01;;;;;;;3.97;2.35;;;;;;;33.58;24.29;102268.22;4785725;29;20052;-76
2022/08/11 11:07:37;;;;;;;4.38;2.40;;;;;;;33.64;23.27;102265.94;4749982;30;20451;-75
2022/08/11 11:10:10;;;;;;;2.70;2.60;;;;;;;33.49;22.54;102255.06;4765426;30;20145;-76
2022/08/11 11:18:23;;;;;;;3.13;2.60;;;;;;;33.66;22.05;102252.31;4765422;30;20075;-75
2022/08/11 11:21:15;;;;;;;2.97;2.60;;;;;;;33.70;22.65;102258.16;4767806;30;20048;-76
2022/08/11 11:24:12;;;;;;;2.60;2.45;;;;;;;33.87;23.23;102255.41;4768530;30;20072;-75
2022/08/11 11:27:13;;;;;;;2.70;2.50;;;;;;;33.86;23.37;102253.22;4768570;30;20056;-76
2022/08/11 11:29:54;;;;;;;5.28;2.40;;;;;;;33.77;22.42;102251.81;4753573;30;20060;-75
2022/08/11 11:32:43;;;;;;;4.30;2.40;;;;;;;33.77;22.83;102246.28;4768651;30;20063;-74
2022/08/11 11:35:14;;;;;;;5.55;2.42;;;;;;;33.59;23.50;102253.84;4768273;30;20149;-76
2022/08/11 11:37:47;;;;;;;3.95;2.35;;;;;;;33.60;22.27;102244.25;4768058;30;20063;-76
2022/08/11 11:40:31;;;;;;;3.55;2.50;;;;;;;33.61;21.62;102239.47;4768587;30;20047;-76
2022/08/11 11:42:59;;;;;;;5.72;2.50;;;;;;;33.49;22.56;102238.50;4771861;29;20591;-77
2022/08/11 11:45:26;;;;;;;3.25;2.67;;;;;;;33.40;23.10;102237.84;4788390;29;20056;-77
2022/08/11 11:47:54;;;;;;;4.30;2.60;;;;;;;33.39;22.74;102230.13;4786789;29;20060;-77
2022/08/11 11:50:30;;;;;;;2.88;2.60;;;;;;;33.47;22.13;102237.03;4787812;29;20063;-77
2022/08/11 11:53:00;;;;;;;4.47;2.55;;;;;;;33.21;22.19;102240.38;4788483;29;20549;-76
2022/08/11 11:55:28;;;;;;;6.30;2.70;;;;;;;33.19;22.47;102231.94;4772090;29;20626;-76
2022/08/11 12:03:32;;;;;;;10.65;2.70;;;;;;;33.19;22.61;102225.69;4788571;29;20105;-77
2022/08/11 12:05:59;;;;;;;3.83;2.40;;;;;;;33.15;22.50;102212.31;4786714;29;20135;-77
2022/08/11 12:08:27;;;;;;;5.47;2.35;;;;;;;33.18;22.95;102211.19;4788043;29;20582;-77
2022/08/11 12:13:54;;;;;;;3.53;2.40;;;;;;;32.94;22.29;102211.91;4788250;29;20048;-78
2022/08/11 12:16:22;;;;;;;5.63;2.40;;;;;;;32.84;22.58;102209.03;4801724;29;20133;-80
2022/08/11 12:19:06;;;;;;;2.53;2.40;;;;;;;32.91;22.12;102199.25;4787460;29;20059;-76
2022/08/11 12:21:35;;;;;;;10.80;2.40;;;;;;;32.97;23.26;102200.50;4787868;29;20502;-78
2022/08/11 12:29:35;;;;;;;3.33;2.38;;;;;;;32.70;22.07;102188.56;4786423;29;20052;-79
2022/08/11 12:32:07;;;;;;;6.90;2.30;;;;;;;32.76;22.29;102189.81;4787414;29;20059;-81
2022/08/11 12:34:34;;;;;;;2.85;2.63;;;;;;;32.67;21.82;102190.41;4787280;29;20052;-79
2022/08/11 12:37:04;;;;;;;2.72;2.30;;;;;;;32.57;21.53;102186.78;4786218;29;20059;-78
2022/08/11 12:45:37;;;;;;;6.25;2.78;;;;;;;32.49;21.65;102175.09;4787738;29;20048;-77
2022/08/11 12:54:32;;;;;;;3.40;2.13;;;;;;;32.49;22.24;102164.78;4785817;29;20117;-82
2022/08/11 13:05:43;;;;;;;2.40;2.30;;;;;;;32.50;23.46;102157.25;4787532;29;20506;-79
2022/08/11 13:08:13;;;;;;;3.53;2.35;;;;;;;32.47;22.74;102156.34;4771036;29;20150;-81
2022/08/11 13:13:28;;;;;;;2.40;2.25;;;;;;;32.35;23.21;102151.88;4770905;29;20048;-78
2022/08/11 13:16:15;;;;;;;2.53;2.33;;;;;;;32.28;22.00;102150.63;4783179;29;20513;-80
2022/08/11 13:18:43;;;;;;;2.28;2.08;;;;;;;32.05;22.16;102145.19;4787061;29;20060;-78
2022/08/11 13:21:10;;;;;;;3.28;2.40;;;;;;;32.14;22.77;102133.59;4770909;29;20056;-79
2022/08/11 13:23:46;;;;;;;3.67;2.22;;;;;;;32.18;22.73;102144.22;4787478;29;20167;-78
2022/08/11 13:26:31;;;;;;;2.78;2.58;;;;;;;32.04;22.14;102145.75;4770639;29;20056;-83
2022/08/11 13:29:25;;;;;;;2.58;2.47;;;;;;;31.94;22.97;102131.13;4786618;29;20183;-82
2022/08/11 13:31:54;;;;;;;4.18;2.20;;;;;;;31.90;22.37;102142.53;4800215;29;20203;-80
2022/08/11 13:34:24;;;;;;;2.67;2.20;;;;;;;31.86;22.57;102125.66;4785756;29;20051;-79
2022/08/11 13:36:53;;;;;;;4.45;2.83;;;;;;;31.94;22.38;102126.34;4785236;29;20064;-79
2022/08/11 13:39:22;;;;;;;2.10;2.00;;;;;;;32.03;23.00;102125.00;4770960;29;21073;-78
2022/08/11 13:41:53;;;;;;;2.55;2.28;;;;;;;32.03;22.64;102120.22;4785921;29;20051;-81
2022/08/11 13:44:21;;;;;;;4.73;2.33;;;;;;;32.03;22.72;102116.75;4786570;29;20053;-87
2022/08/11 13:46:52;;;;;;;;;;;;;;;32.12;23.22;102118.91;4771324;29;20131;-77
2022/08/11 13:49:20;;;;;;;6.32;2.20;;;;;;;32.02;22.56;102121.53;4787071;29;19933;-78
2022/08/11 13:51:47;;;;;;;2.40;2.25;;;;;;;31.88;22.09;102119.59;4785389;29;20056;-77
2022/08/11 13:54:20;;;;;;;3.47;2.20;;;;;;;31.88;22.10;102108.59;4786273;29;20097;-77
2022/08/11 13:56:53;;;;;;;2.28;2.17;;;;;;;31.90;22.87;102103.25;4785552;29;20058;-76
2022/08/11 13:59:21;;;;;;;7.05;2.20;;;;;;;31.85;23.79;102112.44;4786906;29;20056;-81
2022/08/11 14:01:59;;;;;;;3.78;2.58;;;;;;;31.81;23.23;102108.06;4786140;29;20131;-79
2022/08/11 14:05:01;;;;;;;2.88;2.05;;;;;;;31.77;23.26;102115.97;5088204;28;20430;-83
2022/08/11 14:07:37;;;;;;;4.43;2.38;;;;;;;31.79;23.99;102109.91;5071144;28;20456;-81
2022/08/11 14:10:06;;;;;;;4.45;2.15;;;;;;;31.82;23.73;102104.00;5089422;28;20143;-80
2022/08/11 14:15:24;;;;;;;4.63;2.42;;;;;;;31.71;22.58;102098.91;5088709;28;20106;-78
2022/08/11 14:17:55;;;;;;;2.70;2.50;;;;;;;31.63;23.08;102091.94;5070739;28;20052;-82
2022/08/11 14:20:23;;;;;;;6.65;2.30;;;;;;;31.62;22.50;102098.75;5087601;28;20106;-80
2022/08/11 14:23:11;;;;;;;2.40;2.20;;;;;;;31.55;22.67;102083.75;5089165;28;20076;-82
2022/08/11 14:26:22;;;;;;;6.47;2.72;;;;;;;31.50;22.89;102090.91;5087342;28;20052;-81
2022/08/11 14:28:32;;;;;;;7.05;2.40;;;;;;;31.52;22.38;102084.13;5089088;28;20090;-81
2022/08/11 14:31:08;;;;;;;6.45;2.75;;;;;;;31.52;22.49;102087.63;5087469;28;20495;-79
2022/08/11 14:33:36;;;;;;;9.93;2.72;;;;;;;31.44;22.00;102084.16;5087363;28;20107;-79
2022/08/11 14:36:25;;;;;;;10.20;2.45;;;;;;;31.38;22.58;102078.13;5087020;27;20565;-82
2022/08/11 14:38:53;;;;;;;2.92;2.10;;;;;;;31.34;22.15;102080.50;5087143;28;20052;-80
2022/08/11 14:47:16;;;;;;;3.67;2.50;;;;;;;31.37;22.83;102068.41;5088503;28;20075;-83
2022/08/11 14:49:53;;;;;;;2.30;2.10;;;;;;;31.43;22.57;102069.66;5087656;28;20094;-76
2022/08/11 14:52:39;;;;;;;3.95;2.50;;;;;;;31.36;22.11;102067.66;5088736;28;20133;-79
2022/08/11 14:57:58;;;;;;;4.38;2.20;;;;;;;31.35;22.87;102057.22;5088208;28;20041;-77
2022/08/11 15:00:25;;;;;;;2.88;2.50;;;;;;;31.31;23.12;102063.09;5087019;28;20049;-76
2022/08/11 15:03:09;;;;;;;6.00;2.60;;;;;;;31.26;23.23;102066.03;5069443;28;20055;-78
2022/08/11 15:05:42;;;;;;;6.22;2.60;;;;;;;31.18;23.71;102063.34;5086521;28;20055;-77
2022/08/11 15:14:06;;;;;;;3.25;2.20;;;;;;;31.25;23.84;102051.56;5086566;28;20486;-78
2022/08/11 15:19:20;;;;;;;3.30;3.00;;;;;;;31.16;24.02;102050.13;5075031;28;20044;-76
2022/08/11 15:24:35;;;;;;;17.63;5.85;;;;;;;31.13;22.76;102042.25;5074171;28;20094;-74
2022/08/11 15:38:41;;;;;;;2.45;2.35;;;;;;;31.05;23.26;102034.00;5074381;28;20053;-74
2022/08/11 15:46:47;;;;;;;3.45;2.38;;;;;;;31.00;23.12;102023.19;5074178;28;20509;-73
2022/08/11 15:49:27;;;;;;;2.22;2.05;;;;;;;30.97;23.54;102022.28;5073241;28;20041;-75
2022/08/11 15:52:21;;;;;;;10.93;3.42;;;;;;;30.94;23.75;102025.41;5074171;28;20132;-75
2022/08/11 15:54:49;;;;;;;3.10;2.83;;;;;;;30.94;23.12;102011.66;5074584;28;20056;-76
2022/08/11 16:05:22;;;;;;;3.13;2.60;;;;;;;30.81;23.41;102007.09;5074141;28;20041;-75
2022/08/11 16:08:10;;;;;;;5.47;2.47;;;;;;;30.77;23.02;102002.00;5072581;28;20077;-77
2022/08/11 16:10:41;;;;;;;3.88;2.40;;;;;;;30.74;23.66;102007.88;5073552;28;20041;-79
2022/08/11 16:18:40;;;;;;;9.38;2.40;;;;;;;30.66;23.13;101999.63;5073858;28;20049;-76
2022/08/11 16:21:24;;;;;;;2.58;2.30;;;;;;;30.65;23.41;101998.16;5072908;28;20041;-76
2022/08/11 16:24:04;;;;;;;2.33;2.00;;;;;;;30.63;23.88;101995.22;5072461;28;20134;-75
2022/08/11 16:26:33;;;;;;;5.05;2.75;;;;;;;30.63;24.45;102000.00;5069541;28;20061;-75
2022/08/11 16:29:21;;;;;;;2.83;2.70;;;;;;;30.62;24.98;101991.03;5072198;28;20080;-76
2022/08/11 16:40:10;;;;;;;3.42;2.10;;;;;;;30.50;24.62;101989.91;5069923;28;20049;-75
2022/08/11 16:48:27;;;;;;;5.13;2.17;;;;;;;30.36;24.44;101986.63;5071964;28;20045;-78
2022/08/11 16:51:09;;;;;;;2.22;2.13;;;;;;;30.33;25.76;101992.50;5070728;28;20176;-78
2022/08/11 16:53:38;;;;;;;4.82;2.40;;;;;;;30.27;24.27;101989.91;5069901;28;20051;-75
2022/08/11 16:56:36;;;;;;;2.58;2.25;;;;;;;30.25;25.39;101986.25;5071779;28;20506;-75
2022/08/11 16:59:13;;;;;;;3.15;2.20;;;;;;;30.23;25.18;101986.06;5070399;28;20061;-75
2022/08/11 17:01:51;;;;;;;4.95;2.70;;;;;;;30.24;25.45;101996.50;5070225;28;20080;-75
2022/08/11 17:13:26;;;;;;;2.85;2.30;;;;;;;30.10;26.24;101990.44;5071997;28;20044;-76
2022/08/11 17:16:08;;;;;;;5.32;2.30;;;;;;;30.06;26.43;101995.56;5069721;28;20128;-75
2022/08/11 17:19:00;;;;;;;3.15;2.20;;;;;;;30.03;25.94;101988.44;5073100;28;20041;-75
2022/08/11 17:21:34;;;;;;;5.55;2.30;;;;;;;29.97;26.32;101987.88;5063177;28;20107;-76
2022/08/11 17:24:07;;;;;;;3.72;2.05;;;;;;;29.96;25.88;101983.66;5072280;28;20044;-74